Time;durP1;ratioP1;P1;durP2;ratioP2;P2;SDS_P1;SDS_P2;PMS_P1;PMS_P2;Temp;Humidity;BMP_temperature;BMP_pressure;BME280_temperature;BME280_humidity;BME280_pressure;Samples;Min_cycle;Max_cycle;Signal;HPM_P1;HPM_P2
2022/07/28 00:00:00;;;;;;;8.13;7.33;;;;;;;27.92;50.40;99074.28;5069798;28;20192;-74
2022/07/28 00:02:27;;;;;;;8.87;8.03;;;;;;;27.77;50.85;99077.47;5070323;28;20196;-76
2022/07/28 00:04:54;;;;;;;9.10;8.30;;;;;;;27.71;51.31;99070.53;5073414;28;20245;-74
2022/07/28 00:07:20;;;;;;;9.23;8.33;;;;;;;27.75;50.91;99074.25;5073524;28;20199;-74
2022/07/28 00:09:47;;;;;;;11.37;7.73;;;;;;;27.83;51.20;99082.50;5073228;28;20281;-73
2022/07/28 00:12:15;;;;;;;8.73;8.03;;;;;;;27.88;51.16;99084.25;5073966;28;20270;-72
2022/07/28 00:14:42;;;;;;;8.07;7.40;;;;;;;27.88;51.29;99081.50;5074480;28;20351;-75
2022/07/28 00:17:09;;;;;;;9.50;7.97;;;;;;;27.87;51.07;99079.91;5072590;28;20254;-73
2022/07/28 00:19:36;;;;;;;8.27;7.60;;;;;;;27.81;51.31;99078.44;5072464;28;20728;-75
2022/07/28 00:22:03;;;;;;;8.23;7.43;;;;;;;27.84;51.95;99086.81;5071989;28;20196;-75
2022/07/28 00:24:31;;;;;;;8.40;7.70;;;;;;;27.87;51.99;99082.66;5071775;28;20271;-75
2022/07/28 00:26:58;;;;;;;8.13;7.40;;;;;;;27.87;51.89;99085.38;5071856;28;20192;-74
2022/07/28 00:29:27;;;;;;;12.20;7.33;;;;;;;27.89;51.30;99089.41;5071793;28;20196;-74
2022/07/28 00:31:54;;;;;;;8.00;7.43;;;;;;;27.92;51.83;99090.69;5071132;28;20664;-75
2022/07/28 00:34:21;;;;;;;7.77;7.13;;;;;;;27.92;51.29;99101.59;5072393;28;20195;-75
2022/07/28 00:36:47;;;;;;;8.57;7.87;;;;;;;27.94;51.50;99100.19;5071904;28;20655;-75
2022/07/28 00:39:14;;;;;;;8.03;7.53;;;;;;;27.92;51.38;99101.59;5073687;28;20200;-76
2022/07/28 00:41:41;;;;;;;8.90;8.20;;;;;;;27.94;51.20;99100.19;5073185;28;20199;-73
2022/07/28 00:44:08;;;;;;;8.63;8.03;;;;;;;27.95;51.23;99101.78;5073435;28;20336;-73
2022/07/28 00:46:36;;;;;;;7.63;7.13;;;;;;;27.95;51.92;99100.97;5074006;28;20701;-75
2022/07/28 00:49:03;;;;;;;9.93;7.47;;;;;;;27.98;51.74;99105.81;5072979;28;20710;-73
2022/07/28 00:51:30;;;;;;;6.93;6.43;;;;;;;27.99;51.47;99101.94;5073414;28;20215;-74
2022/07/28 00:53:57;;;;;;;7.30;6.70;;;;;;;28.01;51.57;99111.44;5073435;28;20283;-74
2022/07/28 00:56:24;;;;;;;7.50;7.00;;;;;;;27.99;51.25;99101.94;5074127;28;20247;-74
2022/07/28 00:58:51;;;;;;;6.83;6.33;;;;;;;27.96;51.48;99106.13;5074220;28;20200;-73
2022/07/28 01:01:19;;;;;;;6.93;6.43;;;;;;;27.93;51.32;99098.56;5074154;28;20204;-73
2022/07/28 01:03:51;;;;;;;6.80;6.10;;;;;;;27.87;50.94;99107.22;5074385;28;20245;-74
2022/07/28 01:06:45;;;;;;;7.67;6.63;;;;;;;27.80;51.46;99104.13;5074332;28;20184;-74
2022/07/28 01:09:25;;;;;;;6.03;5.47;;;;;;;27.86;50.68;99113.81;5073972;28;20188;-73
2022/07/28 01:11:57;;;;;;;5.63;5.33;;;;;;;27.84;50.78;99114.13;5073895;28;20203;-73
2022/07/28 01:14:34;;;;;;;6.83;5.73;;;;;;;27.79;50.70;99108.78;5073074;28;20242;-73
2022/07/28 01:17:06;;;;;;;6.07;5.63;;;;;;;27.81;50.20;99111.19;5073584;28;20657;-73
2022/07/28 01:19:42;;;;;;;5.67;5.30;;;;;;;27.77;50.44;99121.16;5073650;28;20275;-73
2022/07/28 01:22:12;;;;;;;5.73;5.33;;;;;;;27.56;51.02;99120.13;5073618;28;20203;-75
2022/07/28 01:24:49;;;;;;;6.10;5.70;;;;;;;27.48;51.35;99124.41;5073485;28;20194;-75
2022/07/28 01:27:29;;;;;;;6.40;6.10;;;;;;;27.42;51.93;99127.59;5073571;28;20188;-75
2022/07/28 01:30:08;;;;;;;6.33;5.83;;;;;;;27.36;51.72;99131.59;5054078;28;20197;-75
2022/07/28 01:32:40;;;;;;;5.90;5.60;;;;;;;27.40;51.73;99130.63;5053480;28;20236;-74
2022/07/28 01:35:12;;;;;;;7.63;5.63;;;;;;;27.36;51.22;99126.91;5053689;28;20668;-74
2022/07/28 01:37:43;;;;;;;7.30;5.93;;;;;;;27.41;51.19;99131.44;5053717;28;20683;-74
2022/07/28 01:40:13;;;;;;;7.13;5.50;;;;;;;27.39;51.30;99125.47;5052837;28;20189;-74
2022/07/28 01:42:44;;;;;;;6.83;5.70;;;;;;;27.50;50.85;99121.38;5054681;28;20190;-73
2022/07/28 01:45:13;;;;;;;5.47;5.13;;;;;;;27.54;50.87;99130.53;5072715;28;20188;-72
2022/07/28 01:47:44;;;;;;;5.40;5.10;;;;;;;27.51;50.82;99131.97;5073669;28;20224;-74
2022/07/28 01:50:12;;;;;;;6.50;6.00;;;;;;;27.55;51.00;99132.94;5070625;28;20214;-73
2022/07/28 01:52:41;;;;;;;7.37;6.23;;;;;;;27.47;51.22;99138.34;5070386;28;20194;-71
2022/07/28 01:55:09;;;;;;;5.97;5.67;;;;;;;27.39;51.45;99133.66;5071446;28;20196;-70
2022/07/28 01:57:37;;;;;;;6.93;6.27;;;;;;;27.38;51.73;99138.34;5068665;28;20253;-71
2022/07/28 02:00:07;;;;;;;7.17;5.90;;;;;;;27.38;51.88;99126.59;5068826;28;20187;-71
2022/07/28 02:02:34;;;;;;;7.03;6.43;;;;;;;27.43;51.57;99131.91;5068864;28;20188;-72
2022/07/28 02:05:05;;;;;;;8.23;5.83;;;;;;;27.43;51.88;99126.47;5068253;28;20196;-71
2022/07/28 02:07:33;;;;;;;6.67;6.17;;;;;;;27.41;51.90;99123.25;5069550;28;20187;-72
2022/07/28 02:10:02;;;;;;;6.77;6.30;;;;;;;27.41;51.63;99128.72;5068946;28;20277;-72
2022/07/28 02:12:29;;;;;;;6.70;6.07;;;;;;;27.47;51.42;99127.44;5070175;28;20729;-72
2022/07/28 02:14:58;;;;;;;6.73;6.10;;;;;;;27.43;51.62;99126.47;5070159;28;20672;-72
2022/07/28 02:17:28;;;;;;;7.57;6.67;;;;;;;27.50;51.42;99126.81;5071604;28;20192;-71
2022/07/28 02:19:56;;;;;;;7.37;6.73;;;;;;;27.54;51.27;99130.53;5070860;28;20671;-71
2022/07/28 02:22:26;;;;;;;7.60;6.90;;;;;;;27.57;51.45;99138.09;5072000;28;20201;-71
2022/07/28 02:24:55;;;;;;;7.70;7.10;;;;;;;27.49;51.69;99130.69;5072021;28;20188;-71
2022/07/28 02:27:27;;;;;;;7.67;7.20;;;;;;;27.47;51.75;99132.91;5072023;28;20195;-71
2022/07/28 02:30:05;;;;;;;7.57;7.03;;;;;;;27.48;51.67;99131.81;5072921;28;20180;-71
2022/07/28 02:32:39;;;;;;;6.53;6.10;;;;;;;27.45;51.83;99130.50;5072594;28;20183;-71
2022/07/28 02:35:10;;;;;;;7.73;7.07;;;;;;;27.44;52.17;99133.56;5071473;28;20246;-72
2022/07/28 02:37:46;;;;;;;7.53;6.30;;;;;;;27.42;52.00;99138.50;5072185;28;20196;-71
2022/07/28 02:40:15;;;;;;;8.63;7.13;;;;;;;27.46;52.02;99136.75;5072113;28;20709;-72
2022/07/28 02:42:45;;;;;;;7.10;6.43;;;;;;;27.42;52.55;99130.31;5072386;28;20251;-71
2022/07/28 02:45:15;;;;;;;9.50;7.90;;;;;;;27.39;52.37;99130.94;5073131;28;20188;-72
2022/07/28 02:47:47;;;;;;;8.40;7.70;;;;;;;27.19;53.15;99131.47;5071972;28;20318;-71
2022/07/28 02:50:16;;;;;;;7.67;7.27;;;;;;;27.14;53.29;99139.75;5072626;28;20279;-72
2022/07/28 02:52:46;;;;;;;7.47;6.93;;;;;;;27.05;53.75;99134.28;5072132;28;20253;-71
2022/07/28 02:55:16;;;;;;;8.03;7.37;;;;;;;27.12;53.53;99142.00;5071850;28;20182;-71
2022/07/28 02:57:44;;;;;;;7.90;7.17;;;;;;;27.23;53.27;99137.94;5072625;28;20199;-71
2022/07/28 03:00:12;;;;;;;10.13;7.53;;;;;;;27.17;53.54;99133.69;5071696;28;20660;-71
2022/07/28 03:02:40;;;;;;;7.70;7.00;;;;;;;27.19;53.34;99139.66;5071736;28;20229;-71
2022/07/28 03:05:08;;;;;;;8.37;7.77;;;;;;;27.21;53.53;99140.16;5071923;28;20270;-71
2022/07/28 03:07:36;;;;;;;8.33;7.53;;;;;;;27.28;53.07;99141.31;5072018;28;20192;-72
2022/07/28 03:10:05;;;;;;;8.67;7.83;;;;;;;27.32;53.27;99136.06;5071542;28;20195;-71
2022/07/28 03:12:31;;;;;;;8.17;7.53;;;;;;;27.34;52.91;99136.53;5072106;28;20626;-72
2022/07/28 03:14:58;;;;;;;8.57;7.70;;;;;;;27.35;53.27;99140.88;5072082;28;20265;-72
2022/07/28 03:17:25;;;;;;;11.53;8.27;;;;;;;27.31;53.65;99132.53;5071620;28;20627;-72
2022/07/28 03:19:51;;;;;;;7.20;6.60;;;;;;;27.34;53.30;99134.63;5071759;28;20197;-71
2022/07/28 03:22:18;;;;;;;9.60;7.73;;;;;;;27.32;53.58;99127.88;5071505;28;20204;-72
2022/07/28 03:24:49;;;;;;;8.20;7.60;;;;;;;27.34;53.23;99133.81;5071890;28;20245;-72
2022/07/28 03:27:22;;;;;;;8.43;7.60;;;;;;;27.33;52.38;99133.03;5071844;28;20180;-72
2022/07/28 03:29:52;;;;;;;8.73;8.13;;;;;;;27.28;52.88;99130.41;5071361;28;20250;-73
2022/07/28 03:32:21;;;;;;;8.83;7.47;;;;;;;26.96;53.83;99127.16;5071252;28;20764;-72
2022/07/28 03:34:48;;;;;;;16.50;8.50;;;;;;;27.05;53.87;99131.56;5071745;28;20200;-71
2022/07/28 03:37:20;;;;;;;8.03;7.43;;;;;;;27.07;54.04;99133.97;5071699;28;20253;-72
2022/07/28 03:39:50;;;;;;;9.17;8.43;;;;;;;27.21;53.25;99137.44;5075592;28;20192;-71
2022/07/28 03:42:20;;;;;;;10.43;8.23;;;;;;;27.10;53.53;99138.78;5074692;28;20197;-72
2022/07/28 03:44:47;;;;;;;11.20;8.43;;;;;;;27.12;52.95;99131.09;5074878;28;20245;-72
2022/07/28 03:47:14;;;;;;;10.43;8.23;;;;;;;27.14;53.08;99139.75;5075298;28;20224;-72
2022/07/28 03:49:45;;;;;;;25.83;8.67;;;;;;;27.17;53.16;99133.69;5074896;28;20215;-72
2022/07/28 03:52:12;;;;;;;16.50;8.53;;;;;;;27.27;53.38;99139.72;5073269;28;20216;-72
2022/07/28 03:54:39;;;;;;;9.60;8.53;;;;;;;27.34;53.25;99145.53;5074020;28;20195;-72
2022/07/28 03:57:05;;;;;;;9.43;8.23;;;;;;;27.43;52.96;99148.28;5071027;28;20222;-72
2022/07/28 03:59:34;;;;;;;11.67;9.30;;;;;;;27.50;52.66;99145.91;5071741;28;20192;-72
2022/07/28 04:02:00;;;;;;;12.40;8.23;;;;;;;27.62;52.67;99146.97;5072442;28;20265;-72
2022/07/28 04:04:28;;;;;;;9.37;8.53;;;;;;;27.73;52.47;99147.47;5071464;28;20286;-72
2022/07/28 04:06:55;;;;;;;16.77;8.80;;;;;;;28.03;51.46;99152.06;5072573;28;20188;-72
2022/07/28 04:09:21;;;;;;;9.27;8.30;;;;;;;28.51;49.93;99158.28;5071289;28;20192;-72
2022/07/28 04:11:48;;;;;;;8.97;8.10;;;;;;;29.02;48.81;99153.63;5072435;28;20610;-72
2022/07/28 04:14:16;;;;;;;11.50;8.63;;;;;;;29.54;47.21;99170.69;5072283;28;20624;-72
2022/07/28 04:16:44;;;;;;;15.53;9.33;;;;;;;30.05;45.93;99169.69;5071989;28;20192;-72
2022/07/28 04:19:11;;;;;;;11.43;8.17;;;;;;;30.52;44.25;99182.97;5073303;28;20192;-72
2022/07/28 04:21:38;;;;;;;9.17;8.03;;;;;;;30.89;42.43;99195.75;5070246;28;20826;-72
2022/07/28 04:24:06;;;;;;;13.70;8.80;;;;;;;31.30;43.17;99201.19;5072331;28;20196;-72
2022/07/28 04:26:32;;;;;;;11.03;8.20;;;;;;;31.63;41.36;99206.63;5072180;28;20200;-72
2022/07/28 04:28:59;;;;;;;10.90;8.10;;;;;;;31.98;40.06;99216.91;5072576;28;20620;-72
2022/07/28 04:31:26;;;;;;;9.30;8.20;;;;;;;32.35;39.03;99221.28;5072723;28;20223;-72
2022/07/28 04:33:54;;;;;;;13.93;8.03;;;;;;;32.56;38.67;99218.38;5073142;28;20196;-72
2022/07/28 04:36:21;;;;;;;12.07;8.23;;;;;;;32.83;37.91;99223.19;5072320;28;20196;-72
2022/07/28 04:38:47;;;;;;;11.20;8.43;;;;;;;32.99;37.46;99221.28;5072161;28;20196;-72
2022/07/28 04:41:14;;;;;;;14.27;9.20;;;;;;;33.25;37.08;99222.44;5073617;28;20249;-72
2022/07/28 04:43:41;;;;;;;13.03;8.80;;;;;;;33.36;36.80;99232.97;5074358;28;20188;-71
2022/07/28 04:46:08;;;;;;;9.13;8.17;;;;;;;33.53;36.96;99240.91;5074392;28;20188;-71
2022/07/28 04:48:34;;;;;;;13.73;9.07;;;;;;;33.76;36.84;99239.94;5074158;28;20643;-71
2022/07/28 04:51:02;;;;;;;13.73;8.07;;;;;;;33.85;35.73;99242.56;5073453;28;20192;-71
2022/07/28 04:53:29;;;;;;;9.47;8.50;;;;;;;33.96;35.84;99251.94;5073980;28;20199;-71
2022/07/28 04:55:56;;;;;;;14.13;9.30;;;;;;;34.20;35.51;99252.53;5074308;28;20258;-72
2022/07/28 04:58:23;;;;;;;17.00;9.35;;;;;;;34.51;35.16;99258.03;5073938;28;20241;-72
2022/07/28 05:00:50;;;;;;;14.45;9.10;;;;;;;34.72;35.25;99254.94;5074100;28;20195;-72
2022/07/28 05:03:18;;;;;;;14.15;8.75;;;;;;;34.74;35.13;99247.13;5074070;28;20196;-71
2022/07/28 05:05:44;;;;;;;10.05;9.02;;;;;;;35.06;34.76;99248.59;5073785;28;20282;-72
2022/07/28 05:08:12;;;;;;;12.43;8.88;;;;;;;35.15;34.36;99254.75;5074784;28;20272;-72
2022/07/28 05:10:39;;;;;;;16.20;8.52;;;;;;;35.20;34.58;99251.69;5074039;28;20200;-72
2022/07/28 05:13:06;;;;;;;9.95;8.27;;;;;;;35.36;34.64;99255.19;5073897;28;20254;-71
2022/07/28 05:15:33;;;;;;;14.90;8.63;;;;;;;35.43;34.71;99245.06;5073921;28;20638;-72
2022/07/28 05:18:00;;;;;;;11.55;8.93;;;;;;;35.63;34.07;99254.91;5074683;28;20188;-72
2022/07/28 05:20:27;;;;;;;15.93;8.77;;;;;;;35.59;34.23;99247.72;5074036;28;20192;-73
2022/07/28 05:22:54;;;;;;;10.57;8.48;;;;;;;35.60;34.10;99243.81;5073740;28;20253;-74
2022/07/28 05:25:23;;;;;;;8.52;7.75;;;;;;;35.64;33.88;99247.44;5073538;28;20192;-73
2022/07/28 05:27:51;;;;;;;8.70;7.20;;;;;;;35.41;33.68;99244.66;5074265;28;20192;-63
2022/07/28 05:30:19;;;;;;;7.65;6.55;;;;;;;35.26;34.61;99250.22;5073423;28;20192;-66
2022/07/28 05:32:47;;;;;;;7.68;7.03;;;;;;;35.03;34.64;99247.38;5070275;28;20278;-69
2022/07/28 05:35:15;;;;;;;9.73;7.10;;;;;;;35.06;34.70;99241.13;5066943;28;20191;-70
2022/07/28 05:37:42;;;;;;;7.93;7.18;;;;;;;35.31;34.38;99247.22;5069893;28;20188;-68
2022/07/28 05:40:13;;;;;;;11.00;6.65;;;;;;;35.29;34.26;99255.03;5070096;28;20192;-68
2022/07/28 05:42:42;;;;;;;14.50;7.93;;;;;;;35.10;34.85;99253.06;5071659;28;20200;-66
2022/07/28 05:45:10;;;;;;;13.23;7.13;;;;;;;35.18;34.47;99259.50;5052811;28;20211;-67
2022/07/28 05:47:45;;;;;;;9.60;7.32;;;;;;;35.01;34.79;99259.94;5052234;28;20224;-66
2022/07/28 05:50:12;;;;;;;7.35;6.78;;;;;;;34.78;35.50;99250.75;5067212;28;20203;-68
2022/07/28 05:52:39;;;;;;;9.38;7.47;;;;;;;34.47;35.85;99245.31;5065152;28;20216;-67
2022/07/28 05:55:07;;;;;;;13.85;7.40;;;;;;;34.78;35.97;99246.03;5051763;28;20196;-66
2022/07/28 05:57:34;;;;;;;9.98;7.45;;;;;;;34.94;35.46;99248.78;5053073;28;20196;-66
2022/07/28 06:00:02;;;;;;;14.70;7.35;;;;;;;34.78;35.79;99240.50;5050451;28;20201;-67
2022/07/28 06:02:29;;;;;;;20.83;7.25;;;;;;;34.99;35.35;99240.97;5048838;28;20291;-67
2022/07/28 06:04:57;;;;;;;8.15;7.43;;;;;;;34.98;35.34;99239.38;5048644;28;20266;-66
2022/07/28 06:07:24;;;;;;;8.32;7.05;;;;;;;35.19;35.87;99236.28;5062228;28;20256;-66
2022/07/28 06:09:50;;;;;;;8.20;6.55;;;;;;;35.62;34.80;99244.22;5058012;28;20688;-68
2022/07/28 06:12:17;;;;;;;7.53;6.65;;;;;;;35.83;33.83;99233.56;5048468;28;20221;-65
2022/07/28 06:14:44;;;;;;;8.23;6.28;;;;;;;36.20;33.56;99251.19;5047609;28;20277;-65
2022/07/28 06:17:13;;;;;;;9.52;6.47;;;;;;;36.20;33.98;99246.47;5047839;28;20188;-64
2022/07/28 06:19:40;;;;;;;7.70;6.80;;;;;;;36.22;33.30;99248.91;5050440;28;20222;-66
2022/07/28 06:22:07;;;;;;;7.07;6.57;;;;;;;36.24;32.87;99247.34;5049252;28;20222;-64
2022/07/28 06:24:34;;;;;;;9.45;6.50;;;;;;;36.25;33.01;99248.16;5049297;28;20355;-66
2022/07/28 06:27:01;;;;;;;10.57;7.18;;;;;;;36.39;33.13;99251.94;5069012;28;20257;-65
2022/07/28 06:29:28;;;;;;;7.97;7.18;;;;;;;35.92;35.07;99245.19;5069075;28;20220;-68
2022/07/28 06:31:55;;;;;;;10.88;6.93;;;;;;;35.77;34.52;99240.59;5069620;28;20211;-67
2022/07/28 06:34:23;;;;;;;8.60;7.25;;;;;;;35.97;34.09;99242.91;5068671;28;20352;-66
2022/07/28 06:36:50;;;;;;;10.63;6.85;;;;;;;36.24;33.60;99235.47;5067798;28;20192;-65
2022/07/28 06:39:17;;;;;;;7.68;6.95;;;;;;;35.70;34.95;99238.47;5070501;28;20188;-66
2022/07/28 06:41:44;;;;;;;33.10;8.50;;;;;;;36.26;33.83;99244.22;5069039;28;20230;-67
2022/07/28 06:44:11;;;;;;;8.27;7.15;;;;;;;36.15;33.78;99244.03;5069036;28;20640;-64
2022/07/28 06:46:37;;;;;;;7.95;7.32;;;;;;;36.14;33.37;99236.09;5070210;28;20254;-66
2022/07/28 06:49:04;;;;;;;7.03;6.63;;;;;;;35.26;35.03;99228.91;5069634;28;20228;-65
2022/07/28 06:51:32;;;;;;;7.40;6.90;;;;;;;35.57;34.34;99233.47;5069929;28;20188;-66
2022/07/28 06:53:59;;;;;;;8.13;7.53;;;;;;;35.64;34.26;99234.41;5070590;28;20267;-65
2022/07/28 06:56:26;;;;;;;8.48;7.68;;;;;;;36.08;33.76;99234.78;5070259;28;20192;-65
2022/07/28 06:58:53;;;;;;;7.88;7.13;;;;;;;36.09;33.19;99234.41;5070962;28;20241;-67
2022/07/28 07:01:19;;;;;;;11.85;7.82;;;;;;;36.19;33.36;99235.78;5071711;28;20203;-65
2022/07/28 07:03:46;;;;;;;8.27;7.40;;;;;;;36.54;33.08;99231.59;5071313;28;20261;-65
2022/07/28 07:06:13;;;;;;;8.57;7.57;;;;;;;36.29;33.14;99235.19;5071656;28;20252;-67
2022/07/28 07:08:41;;;;;;;8.32;7.80;;;;;;;36.62;32.69;99233.28;5071292;28;20200;-68
2022/07/28 07:11:08;;;;;;;17.08;8.88;;;;;;;36.67;33.39;99229.41;5071725;28;20237;-67
2022/07/28 07:13:35;;;;;;;7.93;7.32;;;;;;;36.34;32.90;99230.09;5070593;28;20223;-68
2022/07/28 07:16:02;;;;;;;8.55;7.68;;;;;;;36.63;32.75;99225.78;5070733;28;20544;-68
2022/07/28 07:18:29;;;;;;;15.40;10.80;;;;;;;36.99;32.34;99233.44;5069674;28;20237;-65
2022/07/28 07:20:57;;;;;;;7.80;7.28;;;;;;;37.38;31.28;99228.34;5070736;28;20242;-64
2022/07/28 07:23:24;;;;;;;8.38;7.55;;;;;;;37.64;31.04;99226.28;5070107;28;20255;-64
2022/07/28 07:25:52;;;;;;;8.02;7.53;;;;;;;37.36;31.08;99226.00;5071337;28;20192;-65
2022/07/28 07:28:19;;;;;;;7.55;7.10;;;;;;;37.57;31.23;99226.22;5070327;28;20196;-66
2022/07/28 07:30:45;;;;;;;8.38;7.57;;;;;;;37.38;30.97;99218.06;5069996;28;20196;-67
2022/07/28 07:33:12;;;;;;;8.38;7.78;;;;;;;37.64;30.75;99223.50;5069624;28;20277;-65
2022/07/28 07:35:39;;;;;;;9.38;7.68;;;;;;;37.86;31.09;99222.56;5069733;28;20199;-66
2022/07/28 07:38:06;;;;;;;10.05;7.78;;;;;;;37.42;30.89;99213.38;5068929;28;20733;-66
2022/07/28 07:40:33;;;;;;;8.10;7.60;;;;;;;37.92;30.32;99223.78;5069527;28;20192;-67
2022/07/28 07:43:01;;;;;;;8.27;7.57;;;;;;;38.15;30.26;99229.97;5070240;28;20199;-66
2022/07/28 07:45:28;;;;;;;8.93;8.07;;;;;;;38.39;29.77;99223.78;5048713;28;20192;-67
2022/07/28 07:47:55;;;;;;;7.13;6.80;;;;;;;38.57;29.70;99224.72;5049271;28;20228;-66
2022/07/28 07:50:22;;;;;;;8.40;7.78;;;;;;;38.78;28.79;99233.16;5050215;28;20189;-68
2022/07/28 07:52:49;;;;;;;8.82;7.95;;;;;;;38.83;29.24;99226.44;5049839;28;20286;-65
2022/07/28 07:55:16;;;;;;;23.23;8.38;;;;;;;38.77;29.09;99228.00;5051064;28;20279;-65
2022/07/28 07:57:43;;;;;;;8.13;7.38;;;;;;;38.92;29.12;99224.94;5050099;28;20189;-68
2022/07/28 08:00:12;;;;;;;7.43;7.03;;;;;;;39.11;28.59;99230.16;5049331;28;20676;-67
2022/07/28 08:02:39;;;;;;;7.97;7.30;;;;;;;39.14;28.26;99231.34;5049344;28;20197;-66
2022/07/28 08:05:07;;;;;;;8.38;7.80;;;;;;;39.29;27.94;99228.25;5050989;28;20259;-66
2022/07/28 08:07:34;;;;;;;9.07;8.27;;;;;;;39.38;27.88;99228.69;5049240;28;20196;-63
2022/07/28 08:10:01;;;;;;;8.27;7.50;;;;;;;39.42;28.09;99229.50;5049441;28;20648;-64
2022/07/28 08:12:28;;;;;;;7.70;7.07;;;;;;;39.31;27.93;99228.63;5050515;28;20714;-66
2022/07/28 08:14:54;;;;;;;10.07;7.65;;;;;;;39.44;27.75;99229.13;5050543;28;20353;-63
2022/07/28 08:17:23;;;;;;;7.15;6.72;;;;;;;39.51;27.14;99227.13;5050729;28;20193;-67
2022/07/28 08:19:50;;;;;;;10.23;7.53;;;;;;;39.06;28.19;99227.75;5050516;28;20196;-64
2022/07/28 08:22:17;;;;;;;8.02;7.63;;;;;;;39.13;27.72;99225.03;5049334;28;20573;-65
2022/07/28 08:24:44;;;;;;;8.63;7.85;;;;;;;39.21;27.52;99232.19;5051763;28;20257;-65
2022/07/28 08:27:11;;;;;;;7.65;7.00;;;;;;;37.78;29.60;99222.84;5053386;28;20393;-64
2022/07/28 08:29:37;;;;;;;8.30;7.60;;;;;;;38.19;29.19;99218.88;5052968;28;20669;-69
2022/07/28 08:32:04;;;;;;;8.23;7.63;;;;;;;38.00;29.54;99221.88;5052963;28;20660;-65
2022/07/28 08:34:33;;;;;;;7.70;7.28;;;;;;;38.05;29.10;99211.22;5053644;28;20246;-62
2022/07/28 08:37:01;;;;;;;7.93;7.43;;;;;;;38.25;29.05;99222.88;5068607;28;20623;-63
2022/07/28 08:39:28;;;;;;;9.30;7.40;;;;;;;38.15;29.29;99229.16;5073383;28;20260;-65
2022/07/28 08:42:01;;;;;;;9.00;7.40;;;;;;;38.22;28.46;99224.47;5073576;28;20188;-66
2022/07/28 08:44:33;;;;;;;7.93;7.20;;;;;;;38.31;27.89;99222.16;5071515;28;20238;-65
2022/07/28 08:47:01;;;;;;;8.20;7.65;;;;;;;38.52;27.87;99227.06;5072581;28;20230;-67
2022/07/28 08:49:30;;;;;;;7.40;6.90;;;;;;;38.53;27.58;99235.00;5074201;28;20192;-65
2022/07/28 08:52:01;;;;;;;11.85;7.85;;;;;;;38.64;28.01;99229.50;5073096;28;20199;-65
2022/07/28 08:54:29;;;;;;;8.73;7.80;;;;;;;38.59;27.85;99230.69;5074992;28;20272;-65
2022/07/28 08:56:57;;;;;;;8.43;7.43;;;;;;;38.00;29.15;99228.22;5073696;28;20814;-65
2022/07/28 08:59:25;;;;;;;9.02;7.72;;;;;;;37.92;28.76;99229.31;5074085;28;20656;-67
2022/07/28 09:01:53;;;;;;;7.95;7.47;;;;;;;38.31;27.96;99232.44;5074219;28;20245;-66
2022/07/28 09:04:20;;;;;;;7.65;7.10;;;;;;;38.05;28.27;99227.88;5073559;28;20717;-66
2022/07/28 09:06:48;;;;;;;8.95;7.93;;;;;;;38.34;28.14;99226.13;5072387;28;20196;-66
2022/07/28 09:09:16;;;;;;;8.10;7.50;;;;;;;38.35;28.29;99227.72;5072880;28;20192;-67
2022/07/28 09:11:43;;;;;;;7.97;7.38;;;;;;;38.41;27.85;99226.97;5053007;28;20622;-66
2022/07/28 09:14:10;;;;;;;7.95;7.25;;;;;;;38.47;27.97;99231.00;5052822;28;20793;-66
2022/07/28 09:16:38;;;;;;;9.50;7.18;;;;;;;38.57;28.10;99229.50;5053694;28;20200;-65
2022/07/28 09:19:04;;;;;;;8.50;7.68;;;;;;;38.83;27.24;99226.44;5054584;28;20258;-65
2022/07/28 09:21:32;;;;;;;8.00;7.30;;;;;;;38.86;26.94;99228.47;5066107;28;20192;-64
2022/07/28 09:24:00;;;;;;;8.50;7.80;;;;;;;38.93;27.46;99220.97;5073309;28;20196;-65
2022/07/28 09:26:28;;;;;;;8.30;7.57;;;;;;;38.64;28.48;99223.94;5072513;28;20275;-64
2022/07/28 09:28:56;;;;;;;8.75;7.53;;;;;;;38.50;28.32;99224.66;5072974;28;20195;-64
2022/07/28 09:31:25;;;;;;;7.32;6.72;;;;;;;38.85;27.72;99219.31;5071691;28;20191;-67
2022/07/28 09:33:59;;;;;;;7.90;7.15;;;;;;;39.08;26.90;99217.06;5072152;28;20231;-65
2022/07/28 09:36:26;;;;;;;7.78;7.28;;;;;;;39.23;26.78;99213.13;5069588;28;20672;-66
2022/07/28 09:38:55;;;;;;;8.18;7.63;;;;;;;39.22;27.06;99222.66;5072941;28;20261;-63
2022/07/28 09:41:22;;;;;;;8.35;7.65;;;;;;;39.31;26.63;99225.84;5071346;28;20223;-63
2022/07/28 09:43:51;;;;;;;8.77;7.88;;;;;;;39.21;26.77;99217.50;5067788;28;20193;-64
2022/07/28 09:46:20;;;;;;;8.10;7.65;;;;;;;38.12;27.88;99214.06;5071476;28;20245;-63
2022/07/28 09:48:55;;;;;;;7.88;7.30;;;;;;;38.45;27.57;99216.66;5072091;28;20232;-65
2022/07/28 09:51:24;;;;;;;8.35;7.65;;;;;;;38.67;27.02;99212.06;5071492;28;20229;-65
2022/07/28 09:53:51;;;;;;;8.52;7.75;;;;;;;38.63;27.47;99208.47;5071636;28;20223;-65
2022/07/28 09:56:18;;;;;;;7.95;7.43;;;;;;;38.73;27.53;99214.09;5072919;28;20208;-64
2022/07/28 09:58:56;;;;;;;8.60;7.80;;;;;;;38.78;27.29;99202.59;5071750;28;20200;-66
2022/07/28 10:01:23;;;;;;;7.38;6.90;;;;;;;38.87;27.15;99210.59;5072038;28;20617;-64
2022/07/28 10:03:52;;;;;;;8.35;7.47;;;;;;;38.23;28.17;99209.41;5072565;28;20656;-64
2022/07/28 10:06:27;;;;;;;7.82;7.32;;;;;;;38.43;27.84;99210.72;5071843;28;20196;-65
2022/07/28 10:08:55;;;;;;;8.65;7.82;;;;;;;38.44;27.27;99209.53;5071748;28;20619;-65
2022/07/28 10:11:25;;;;;;;7.28;6.60;;;;;;;38.19;27.06;99218.88;5055747;28;20577;-64
2022/07/28 10:14:01;;;;;;;10.13;8.00;;;;;;;38.24;27.38;99199.06;5052001;28;20220;-65
2022/07/28 10:16:30;;;;;;;10.48;7.57;;;;;;;38.48;28.19;99204.84;5052527;28;20191;-65
2022/07/28 10:18:59;;;;;;;7.75;7.18;;;;;;;38.07;28.15;99195.00;5051816;28;20742;-65
2022/07/28 10:21:27;;;;;;;7.75;7.15;;;;;;;37.30;29.47;99199.78;5051549;28;20283;-66
2022/07/28 10:23:55;;;;;;;13.88;7.53;;;;;;;37.20;28.72;99195.69;5050729;28;20684;-66
2022/07/28 10:26:27;;;;;;;9.13;7.68;;;;;;;37.27;28.97;99177.56;5052089;28;20189;-64
2022/07/28 10:28:54;;;;;;;9.02;8.32;;;;;;;37.13;29.12;99183.72;5051759;28;20188;-67
2022/07/28 10:31:32;;;;;;;8.60;7.75;;;;;;;37.34;28.86;99178.44;5051673;28;20287;-64
2022/07/28 10:34:01;;;;;;;9.63;7.28;;;;;;;37.06;29.45;99164.25;5052270;28;20208;-64
2022/07/28 10:36:28;;;;;;;8.20;7.65;;;;;;;37.38;29.58;99170.94;5063133;28;20223;-64
2022/07/28 10:39:02;;;;;;;7.88;7.07;;;;;;;37.31;29.06;99167.31;5072114;28;20192;-66
2022/07/28 10:41:38;;;;;;;8.68;7.97;;;;;;;37.23;28.74;99160.88;5068853;28;20187;-66
2022/07/28 10:44:06;;;;;;;7.50;6.97;;;;;;;37.19;28.52;99154.50;5054610;28;20582;-64
2022/07/28 10:46:34;;;;;;;7.55;7.00;;;;;;;36.97;28.59;99169.28;5052374;28;20254;-64
2022/07/28 10:49:03;;;;;;;10.45;7.13;;;;;;;36.93;28.42;99166.50;5051702;28;20327;-63
2022/07/28 10:51:31;;;;;;;8.35;7.75;;;;;;;36.00;29.54;99159.22;5050871;28;20228;-63
2022/07/28 10:54:07;;;;;;;9.20;7.50;;;;;;;35.93;30.33;99164.63;5067107;28;20242;-64
2022/07/28 10:56:52;;;;;;;9.70;8.30;;;;;;;36.31;29.21;99169.19;5071038;28;20184;-64
2022/07/28 10:59:56;;;;;;;7.68;7.32;;;;;;;36.43;28.79;99157.88;5070250;28;20195;-65
2022/07/28 11:02:50;;;;;;;7.20;6.47;;;;;;;36.24;29.21;99161.59;5071305;28;20203;-67
2022/07/28 11:05:37;;;;;;;7.80;7.05;;;;;;;36.08;29.23;99166.44;5071500;28;20223;-63
2022/07/28 11:08:06;;;;;;;7.20;6.32;;;;;;;36.23;28.43;99156.41;5071180;28;20187;-65
2022/07/28 11:10:44;;;;;;;7.18;6.70;;;;;;;36.40;28.77;99155.88;5060820;28;20196;-65
2022/07/28 11:13:24;;;;;;;7.22;6.63;;;;;;;36.58;29.24;99156.91;5050351;28;20224;-64
2022/07/28 11:15:51;;;;;;;7.25;6.32;;;;;;;36.39;29.08;99159.81;5050986;28;20242;-65
2022/07/28 11:18:19;;;;;;;7.22;6.70;;;;;;;36.20;28.94;99151.59;5050869;28;20234;-65
2022/07/28 11:21:08;;;;;;;6.15;5.75;;;;;;;36.42;28.72;99154.31;5050754;28;20204;-64
2022/07/28 11:23:56;;;;;;;8.20;6.03;;;;;;;36.44;29.25;99148.41;5050450;28;20269;-65
2022/07/28 11:26:38;;;;;;;17.25;6.68;;;;;;;36.09;28.31;99162.50;5063107;28;20613;-65
2022/07/28 11:29:19;;;;;;;6.38;5.80;;;;;;;36.13;28.61;99146.75;5071058;28;20192;-66
2022/07/28 11:32:02;;;;;;;10.48;6.35;;;;;;;36.47;28.87;99133.81;5070187;28;20195;-67
2022/07/28 11:35:17;;;;;;;8.77;6.38;;;;;;;36.68;28.49;99131.34;5071810;28;20289;-64
2022/07/28 11:38:12;;;;;;;6.15;5.75;;;;;;;36.67;27.29;99149.13;5051706;28;20196;-66
2022/07/28 11:40:41;;;;;;;6.78;6.07;;;;;;;36.65;27.40;99135.66;5070141;28;20207;-67